Time;durP1;ratioP1;P1;durP2;ratioP2;P2;SDS_P1;SDS_P2;PMS_P1;PMS_P2;Temp;Humidity;BMP_temperature;BMP_pressure;BME280_temperature;BME280_humidity;BME280_pressure;Samples;Min_cycle;Max_cycle;Signal;HPM_P1;HPM_P2
2023/06/18 00:02:18;;;;;;;48.95;26.30;;;;;;;;;;5033026;28;20104;-72
2023/06/18 00:04:43;;;;;;;48.25;25.48;;;;;;;;;;5032932;28;20025;-72
2023/06/18 00:07:10;;;;;;;52.42;26.10;;;;;;;;;;5032956;28;20036;-72
2023/06/18 00:09:35;;;;;;;48.70;26.27;;;;;;;;;;5032464;28;20021;-72
2023/06/18 00:12:01;;;;;;;47.88;24.95;;;;;;;;;;5032883;28;20346;-72
2023/06/18 00:14:27;;;;;;;54.03;25.73;;;;;;;;;;5032923;28;20017;-72
2023/06/18 00:16:53;;;;;;;48.15;24.90;;;;;;;;;;5032682;28;20034;-72
2023/06/18 00:19:20;;;;;;;51.72;25.40;;;;;;;;;;5032669;28;20706;-72
2023/06/18 00:21:47;;;;;;;49.50;25.15;;;;;;;;;;5032993;28;20029;-72
2023/06/18 00:24:13;;;;;;;47.55;25.42;;;;;;;;;;5032882;28;20372;-72
2023/06/18 00:26:39;;;;;;;46.90;23.60;;;;;;;;;;5032716;28;20030;-72
2023/06/18 00:29:06;;;;;;;47.75;25.13;;;;;;;;;;5032750;28;20028;-72
2023/06/18 00:31:35;;;;;;;44.25;23.77;;;;;;;;;;5032902;28;20397;-72
2023/06/18 00:34:07;;;;;;;47.15;23.52;;;;;;;;;;5031221;28;20107;-72
2023/06/18 00:36:34;;;;;;;41.75;22.42;;;;;;;;;;5032615;28;20460;-72
2023/06/18 00:39:03;;;;;;;41.78;22.17;;;;;;;;;;5032470;28;20025;-72
2023/06/18 00:41:29;;;;;;;42.08;21.63;;;;;;;;;;5032471;28;20021;-72
2023/06/18 00:43:57;;;;;;;44.40;23.23;;;;;;;;;;5032403;28;20108;-72
2023/06/18 00:46:24;;;;;;;43.85;25.33;;;;;;;;;;5031959;28;20049;-72
2023/06/18 00:48:51;;;;;;;46.45;25.15;;;;;;;;;;5032229;28;20028;-72
2023/06/18 00:51:17;;;;;;;51.92;25.42;;;;;;;;;;5032583;28;20025;-72
2023/06/18 00:53:43;;;;;;;50.72;24.75;;;;;;;;;;5032239;28;20096;-72
2023/06/18 00:56:10;;;;;;;56.33;26.58;;;;;;;;;;5032209;28;20473;-72
2023/06/18 00:58:36;;;;;;;55.70;27.65;;;;;;;;;;5032297;28;20025;-72
2023/06/18 01:01:02;;;;;;;57.60;26.73;;;;;;;;;;5032184;28;20052;-72
2023/06/18 01:03:31;;;;;;;57.45;27.60;;;;;;;;;;5032346;28;20030;-72
2023/06/18 01:05:59;;;;;;;55.80;26.00;;;;;;;;;;5032803;28;20029;-72
2023/06/18 01:08:25;;;;;;;57.15;26.80;;;;;;;;;;5032442;28;20055;-72
2023/06/18 01:11:11;;;;;;;55.28;25.50;;;;;;;;;;5032057;28;20025;-72
2023/06/18 01:13:41;;;;;;;56.80;26.60;;;;;;;;;;5032099;28;20025;-72
2023/06/18 01:16:08;;;;;;;64.72;28.05;;;;;;;;;;5031949;28;20369;-72
2023/06/18 01:18:39;;;;;;;62.97;27.23;;;;;;;;;;5032066;28;20884;-72
2023/06/18 01:21:09;;;;;;;52.03;25.88;;;;;;;;;;5034150;28;20108;-72
2023/06/18 01:23:49;;;;;;;53.97;25.60;;;;;;;;;;5036289;28;20383;-72
2023/06/18 01:26:15;;;;;;;53.30;26.35;;;;;;;;;;5036084;28;20037;-72
2023/06/18 01:28:42;;;;;;;52.22;25.73;;;;;;;;;;5035923;28;20578;-72
2023/06/18 01:31:07;;;;;;;50.55;25.08;;;;;;;;;;5035737;28;20065;-71
2023/06/18 01:33:34;;;;;;;54.53;26.25;;;;;;;;;;5035881;28;20103;-71
2023/06/18 01:36:00;;;;;;;59.40;27.15;;;;;;;;;;5035810;28;20030;-71
2023/06/18 01:38:33;;;;;;;44.42;22.00;;;;;;;;;;5035762;28;20024;-72
2023/06/18 01:41:21;;;;;;;46.25;23.90;;;;;;;;;;5035698;28;20376;-72
2023/06/18 01:43:47;;;;;;;43.95;23.02;;;;;;;;;;5035466;28;20468;-72
2023/06/18 01:46:15;;;;;;;45.83;22.10;;;;;;;;;;5034610;28;20058;-72
2023/06/18 01:48:51;;;;;;;44.38;22.38;;;;;;;;;;5035693;28;20089;-72
2023/06/18 01:51:19;;;;;;;51.92;26.02;;;;;;;;;;5035739;28;20032;-72
2023/06/18 01:53:45;;;;;;;50.92;23.50;;;;;;;;;;5035655;28;20028;-72
2023/06/18 01:56:13;;;;;;;50.40;24.55;;;;;;;;;;5035364;28;20065;-72
2023/06/18 01:58:42;;;;;;;51.08;24.48;;;;;;;;;;5035650;28;20014;-72
2023/06/18 02:01:11;;;;;;;49.92;24.05;;;;;;;;;;5035354;28;20017;-72
2023/06/18 02:03:40;;;;;;;45.63;22.17;;;;;;;;;;5035440;28;20644;-72
2023/06/18 02:06:07;;;;;;;44.15;23.35;;;;;;;;;;5035351;28;20064;-72
2023/06/18 02:08:33;;;;;;;42.92;22.38;;;;;;;;;;5035278;28;20075;-72
2023/06/18 02:10:59;;;;;;;41.65;22.05;;;;;;;;;;5035559;28;20026;-72
2023/06/18 02:13:25;;;;;;;42.53;22.05;;;;;;;;;;5035099;28;20113;-72
2023/06/18 02:15:51;;;;;;;43.78;22.73;;;;;;;;;;5035087;28;20033;-72
2023/06/18 02:18:17;;;;;;;40.33;20.95;;;;;;;;;;5035097;28;20025;-72
2023/06/18 02:20:44;;;;;;;41.10;21.52;;;;;;;;;;5033778;28;20021;-72
2023/06/18 02:23:10;;;;;;;39.72;21.50;;;;;;;;;;5035058;28;20109;-72
2023/06/18 02:25:36;;;;;;;45.03;22.15;;;;;;;;;;5034946;28;20599;-72
2023/06/18 02:28:02;;;;;;;44.05;22.35;;;;;;;;;;5034898;28;20029;-72
2023/06/18 02:30:29;;;;;;;38.28;21.92;;;;;;;;;;5034933;28;20032;-72
2023/06/18 02:32:56;;;;;;;44.10;22.67;;;;;;;;;;5034563;28;20032;-71
2023/06/18 02:35:22;;;;;;;43.10;21.75;;;;;;;;;;5034748;28;20044;-72
2023/06/18 02:37:48;;;;;;;44.38;21.70;;;;;;;;;;5034756;28;20049;-72
2023/06/18 02:40:14;;;;;;;43.35;22.60;;;;;;;;;;5034765;28;20072;-72
2023/06/18 02:42:47;;;;;;;42.88;21.20;;;;;;;;;;5034772;28;20029;-72
2023/06/18 02:45:17;;;;;;;45.00;21.95;;;;;;;;;;5034064;28;20473;-72
2023/06/18 02:47:44;;;;;;;39.85;21.67;;;;;;;;;;5034549;28;20241;-72
2023/06/18 02:50:10;;;;;;;41.92;21.98;;;;;;;;;;5034541;28;20018;-72
2023/06/18 02:52:36;;;;;;;45.03;23.45;;;;;;;;;;5034481;28;20078;-72
2023/06/18 02:55:02;;;;;;;42.60;21.98;;;;;;;;;;5034288;28;20064;-72
2023/06/18 02:57:28;;;;;;;50.28;23.95;;;;;;;;;;5034202;28;20090;-72
2023/06/18 02:59:54;;;;;;;44.97;22.00;;;;;;;;;;5034264;28;20029;-71
2023/06/18 03:02:20;;;;;;;47.45;22.58;;;;;;;;;;5034193;28;20515;-72
2023/06/18 03:04:46;;;;;;;46.95;22.83;;;;;;;;;;5034441;28;20018;-71
2023/06/18 03:07:12;;;;;;;41.90;21.50;;;;;;;;;;5033902;28;20035;-72
2023/06/18 03:09:38;;;;;;;45.30;21.83;;;;;;;;;;5033648;28;20018;-71
2023/06/18 03:12:04;;;;;;;43.25;21.80;;;;;;;;;;5033826;28;20084;-71
2023/06/18 03:14:31;;;;;;;44.80;22.83;;;;;;;;;;5034078;28;20028;-72
2023/06/18 03:16:57;;;;;;;45.28;23.17;;;;;;;;;;5033982;28;20037;-72
2023/06/18 03:19:23;;;;;;;44.85;22.27;;;;;;;;;;5033784;28;20083;-72
2023/06/18 03:21:49;;;;;;;42.17;21.70;;;;;;;;;;5033976;28;20072;-71
2023/06/18 03:24:15;;;;;;;42.50;21.73;;;;;;;;;;5034043;28;20029;-72
2023/06/18 03:26:43;;;;;;;41.08;20.92;;;;;;;;;;5031917;28;20108;-72
2023/06/18 03:29:09;;;;;;;44.95;22.38;;;;;;;;;;5033601;28;20022;-71
2023/06/18 03:31:35;;;;;;;48.63;24.05;;;;;;;;;;5033673;28;20036;-71
2023/06/18 03:34:01;;;;;;;47.88;22.48;;;;;;;;;;5033742;28;20053;-71
2023/06/18 03:36:39;;;;;;;42.50;22.17;;;;;;;;;;5033549;28;20034;-71
2023/06/18 03:39:05;;;;;;;43.25;23.02;;;;;;;;;;5033995;28;20037;-72
2023/06/18 03:41:31;;;;;;;41.78;21.90;;;;;;;;;;5033366;28;20365;-71
2023/06/18 03:43:56;;;;;;;44.17;22.95;;;;;;;;;;5032709;28;20033;-71
2023/06/18 03:46:22;;;;;;;46.53;23.48;;;;;;;;;;5033118;28;20053;-71
2023/06/18 03:48:48;;;;;;;51.70;25.70;;;;;;;;;;5032072;28;20030;-71
2023/06/18 03:51:15;;;;;;;43.50;22.38;;;;;;;;;;5033257;28;20460;-71
2023/06/18 03:53:41;;;;;;;46.72;23.63;;;;;;;;;;5033537;28;20025;-71
2023/06/18 03:56:08;;;;;;;47.78;24.33;;;;;;;;;;5033142;28;20040;-71
2023/06/18 03:58:34;;;;;;;45.60;23.33;;;;;;;;;;5032946;28;20036;-71
2023/06/18 04:01:00;;;;;;;46.78;22.88;;;;;;;;;;5032740;28;20018;-71
2023/06/18 04:03:27;;;;;;;49.33;24.02;;;;;;;;;;5031678;28;20470;-72
2023/06/18 04:05:53;;;;;;;47.28;23.20;;;;;;;;;;5033620;28;20353;-71
2023/06/18 04:08:19;;;;;;;45.63;23.05;;;;;;;;;;5032964;28;20036;-71
2023/06/18 04:10:47;;;;;;;47.25;23.15;;;;;;;;;;5033006;28;20025;-71
2023/06/18 04:13:16;;;;;;;45.58;23.45;;;;;;;;;;5031513;28;20360;-71
2023/06/18 04:15:43;;;;;;;46.25;23.67;;;;;;;;;;5032764;28;20022;-71
2023/06/18 04:18:09;;;;;;;46.53;24.10;;;;;;;;;;5032690;28;20369;-72
2023/06/18 04:20:35;;;;;;;41.78;22.42;;;;;;;;;;5032628;28;20038;-72
2023/06/18 04:23:01;;;;;;;44.47;23.95;;;;;;;;;;5032686;28;20554;-71
2023/06/18 04:25:27;;;;;;;43.72;24.13;;;;;;;;;;5032452;28;20029;-72
2023/06/18 04:27:53;;;;;;;45.22;22.90;;;;;;;;;;5032664;28;20469;-71
2023/06/18 04:30:19;;;;;;;48.92;23.48;;;;;;;;;;5032718;28;20476;-71
2023/06/18 04:32:45;;;;;;;48.38;23.83;;;;;;;;;;5032796;28;20067;-71
2023/06/18 04:35:11;;;;;;;43.30;23.08;;;;;;;;;;5032423;28;20108;-71
2023/06/18 04:37:37;;;;;;;46.10;23.48;;;;;;;;;;5032384;28;20535;-72
2023/06/18 04:40:04;;;;;;;43.22;24.05;;;;;;;;;;5032484;28;20148;-71
2023/06/18 04:42:30;;;;;;;45.05;24.45;;;;;;;;;;5032480;28;20473;-71
2023/06/18 04:44:56;;;;;;;44.35;23.60;;;;;;;;;;5032026;28;20029;-72
2023/06/18 04:47:22;;;;;;;43.53;23.98;;;;;;;;;;5032784;28;20463;-72
2023/06/18 04:49:48;;;;;;;45.47;22.67;;;;;;;;;;5032477;28;20026;-71
2023/06/18 04:52:15;;;;;;;39.90;21.67;;;;;;;;;;5032380;28;20054;-72
2023/06/18 04:54:41;;;;;;;41.50;21.80;;;;;;;;;;5032155;28;20043;-71
2023/06/18 04:57:07;;;;;;;42.10;23.02;;;;;;;;;;5032187;28;20083;-72
2023/06/18 04:59:34;;;;;;;44.03;24.00;;;;;;;;;;5032385;28;20025;-72
2023/06/18 05:02:01;;;;;;;42.08;23.40;;;;;;;;;;5032316;28;20025;-72
2023/06/18 05:04:27;;;;;;;38.78;21.83;;;;;;;;;;5032323;28;20029;-72
2023/06/18 05:06:53;;;;;;;38.28;21.42;;;;;;;;;;5032369;28;20029;-72
2023/06/18 05:09:19;;;;;;;44.35;23.55;;;;;;;;;;5032185;28;20036;-72
2023/06/18 05:11:45;;;;;;;41.33;22.33;;;;;;;;;;5032146;28;20022;-72
2023/06/18 05:14:11;;;;;;;40.58;22.52;;;;;;;;;;5032216;28;20085;-72
2023/06/18 05:16:37;;;;;;;42.10;23.88;;;;;;;;;;5032108;28;20045;-72
2023/06/18 05:19:03;;;;;;;42.40;23.95;;;;;;;;;;5032193;28;20026;-72
2023/06/18 05:21:29;;;;;;;38.75;20.75;;;;;;;;;;5032126;28;20599;-72
2023/06/18 05:23:55;;;;;;;39.85;21.90;;;;;;;;;;5032040;28;20037;-72
2023/06/18 05:26:21;;;;;;;39.83;23.10;;;;;;;;;;5031971;28;20029;-71
2023/06/18 05:28:48;;;;;;;39.63;22.25;;;;;;;;;;5032028;28;20025;-72
2023/06/18 05:31:14;;;;;;;36.10;23.27;;;;;;;;;;5032010;28;20151;-72
2023/06/18 05:33:40;;;;;;;38.88;22.77;;;;;;;;;;5031979;28;20053;-73
2023/06/18 05:36:06;;;;;;;35.20;22.30;;;;;;;;;;5031992;28;20538;-72
2023/06/18 05:38:32;;;;;;;34.28;20.83;;;;;;;;;;5031873;28;20488;-72
2023/06/18 05:40:58;;;;;;;36.40;21.40;;;;;;;;;;5031910;28;20079;-72
2023/06/18 05:43:24;;;;;;;34.85;21.30;;;;;;;;;;5031847;28;20034;-72
2023/06/18 05:45:50;;;;;;;34.58;20.92;;;;;;;;;;5030688;28;20054;-72
2023/06/18 05:48:16;;;;;;;33.70;19.95;;;;;;;;;;5031907;28;20076;-72
2023/06/18 05:50:42;;;;;;;35.40;21.27;;;;;;;;;;5032265;28;20072;-72
2023/06/18 05:53:08;;;;;;;36.80;22.23;;;;;;;;;;5031833;28;20061;-72
2023/06/18 05:55:34;;;;;;;35.58;22.35;;;;;;;;;;5031841;28;20091;-72
2023/06/18 05:58:01;;;;;;;31.90;19.52;;;;;;;;;;5031778;28;20034;-72
2023/06/18 06:00:27;;;;;;;36.80;21.42;;;;;;;;;;5031918;28;20024;-72
2023/06/18 06:02:53;;;;;;;33.67;20.55;;;;;;;;;;5031796;28;20026;-72
2023/06/18 06:05:20;;;;;;;35.47;22.00;;;;;;;;;;5031712;28;20029;-72
2023/06/18 06:07:46;;;;;;;32.40;21.48;;;;;;;;;;5034396;28;20031;-72
2023/06/18 06:10:14;;;;;;;33.63;21.17;;;;;;;;;;5035428;28;20056;-72
2023/06/18 06:12:40;;;;;;;33.90;19.52;;;;;;;;;;5035270;28;20021;-72
2023/06/18 06:15:07;;;;;;;32.05;20.88;;;;;;;;;;5035363;28;20036;-72
2023/06/18 06:17:33;;;;;;;33.63;22.75;;;;;;;;;;5035150;28;20036;-72
2023/06/18 06:19:59;;;;;;;35.00;22.60;;;;;;;;;;5035313;28;20025;-72
2023/06/18 06:22:25;;;;;;;32.55;22.33;;;;;;;;;;5035290;28;20057;-72
2023/06/18 06:24:51;;;;;;;36.90;23.00;;;;;;;;;;5035002;28;20064;-72
2023/06/18 06:27:17;;;;;;;31.23;21.38;;;;;;;;;;5033656;28;20033;-72
2023/06/18 06:29:43;;;;;;;30.95;20.10;;;;;;;;;;5034881;28;20025;-72
2023/06/18 06:32:09;;;;;;;33.35;23.83;;;;;;;;;;5034765;28;20048;-72
2023/06/18 06:34:35;;;;;;;29.40;19.27;;;;;;;;;;5034939;28;20033;-72
2023/06/18 06:37:01;;;;;;;27.50;20.08;;;;;;;;;;5034647;28;20030;-72
2023/06/18 06:39:27;;;;;;;34.88;21.45;;;;;;;;;;5035087;28;20125;-72
2023/06/18 06:41:53;;;;;;;29.20;20.42;;;;;;;;;;5034759;28;20436;-72
2023/06/18 06:44:19;;;;;;;28.92;21.00;;;;;;;;;;5034556;28;20029;-74
2023/06/18 06:46:52;;;;;;;30.65;20.80;;;;;;;;;;5034683;28;20149;-72
2023/06/18 06:49:18;;;;;;;30.73;20.02;;;;;;;;;;5034446;28;20026;-72
2023/06/18 06:51:50;;;;;;;29.27;20.80;;;;;;;;;;5034581;28;20442;-72
2023/06/18 06:54:17;;;;;;;29.63;19.98;;;;;;;;;;5034519;28;20033;-72
2023/06/18 06:56:43;;;;;;;30.02;20.63;;;;;;;;;;5034689;28;20041;-72
2023/06/18 06:59:10;;;;;;;27.38;19.88;;;;;;;;;;5034410;28;20029;-72
2023/06/18 07:01:35;;;;;;;28.63;20.80;;;;;;;;;;5034606;28;20030;-72
2023/06/18 07:04:01;;;;;;;28.63;20.33;;;;;;;;;;5034129;28;20100;-72
2023/06/18 07:06:27;;;;;;;29.08;21.25;;;;;;;;;;5034181;28;20030;-72
2023/06/18 07:08:53;;;;;;;29.23;21.00;;;;;;;;;;5034161;28;20080;-73
2023/06/18 07:11:19;;;;;;;26.73;20.67;;;;;;;;;;5034051;28;20548;-72
2023/06/18 07:13:47;;;;;;;25.15;19.35;;;;;;;;;;5034093;28;20035;-72
2023/06/18 07:16:13;;;;;;;29.35;21.15;;;;;;;;;;5033966;28;20029;-73
2023/06/18 07:18:39;;;;;;;28.33;21.30;;;;;;;;;;5032909;28;20679;-72
2023/06/18 07:21:05;;;;;;;27.77;21.13;;;;;;;;;;5033961;28;20026;-73
2023/06/18 07:23:31;;;;;;;27.92;20.63;;;;;;;;;;5032702;28;20373;-72
2023/06/18 07:25:57;;;;;;;30.60;21.40;;;;;;;;;;5033974;28;20075;-73
2023/06/18 07:28:23;;;;;;;26.98;20.13;;;;;;;;;;5033824;28;20022;-73
2023/06/18 07:30:49;;;;;;;29.25;21.50;;;;;;;;;;5033747;28;20048;-72
2023/06/18 07:33:15;;;;;;;28.48;21.42;;;;;;;;;;5033761;28;20145;-72
2023/06/18 07:35:41;;;;;;;25.35;18.63;;;;;;;;;;5033534;28;20026;-72
2023/06/18 07:38:07;;;;;;;26.75;20.40;;;;;;;;;;5033606;28;20539;-73
2023/06/18 07:40:33;;;;;;;29.17;20.25;;;;;;;;;;5033548;28;20021;-72
2023/06/18 07:43:00;;;;;;;30.67;20.65;;;;;;;;;;5033590;28;20032;-72
2023/06/18 07:45:34;;;;;;;27.52;18.88;;;;;;;;;;5032228;28;20076;-73
2023/06/18 07:48:00;;;;;;;26.23;20.13;;;;;;;;;;5033697;28;20021;-73
2023/06/18 07:50:26;;;;;;;25.40;18.67;;;;;;;;;;5033454;28;20057;-73
2023/06/18 07:52:52;;;;;;;27.90;19.67;;;;;;;;;;5033226;28;20029;-73
2023/06/18 07:55:18;;;;;;;25.67;19.83;;;;;;;;;;5033298;28;20029;-73
2023/06/18 07:57:44;;;;;;;26.27;19.65;;;;;;;;;;5033144;28;20025;-73
2023/06/18 08:00:10;;;;;;;25.75;18.80;;;;;;;;;;5033123;28;20022;-73
2023/06/18 08:02:36;;;;;;;23.70;17.27;;;;;;;;;;5033112;28;20091;-73
2023/06/18 08:05:02;;;;;;;26.98;20.35;;;;;;;;;;5033100;28;20021;-73
2023/06/18 08:07:29;;;;;;;28.42;19.13;;;;;;;;;;5032940;28;20425;-73
2023/06/18 08:09:55;;;;;;;27.05;19.45;;;;;;;;;;5033082;28;20029;-73
2023/06/18 08:12:21;;;;;;;27.10;19.65;;;;;;;;;;5033087;28;20025;-73
2023/06/18 08:14:47;;;;;;;26.52;18.30;;;;;;;;;;5032941;28;20030;-73
2023/06/18 08:17:16;;;;;;;26.77;19.88;;;;;;;;;;5032782;28;20029;-73
2023/06/18 08:19:45;;;;;;;25.65;19.90;;;;;;;;;;5033132;28;20048;-73
2023/06/18 08:22:15;;;;;;;28.05;20.00;;;;;;;;;;5031491;28;20120;-73
2023/06/18 08:24:41;;;;;;;24.30;18.00;;;;;;;;;;5032776;28;20029;-73
2023/06/18 08:27:07;;;;;;;27.90;19.20;;;;;;;;;;5032662;28;20086;-73
2023/06/18 08:29:33;;;;;;;25.73;18.60;;;;;;;;;;5032290;28;20487;-73
2023/06/18 08:32:04;;;;;;;28.00;19.67;;;;;;;;;;5032566;28;20037;-73
2023/06/18 08:34:30;;;;;;;23.98;19.10;;;;;;;;;;5032594;28;20029;-73
2023/06/18 08:36:57;;;;;;;26.38;18.55;;;;;;;;;;5032489;28;20113;-73
2023/06/18 08:39:23;;;;;;;24.80;18.55;;;;;;;;;;5032494;28;20334;-73
2023/06/18 08:41:49;;;;;;;29.15;20.00;;;;;;;;;;5032588;28;20359;-73
2023/06/18 08:44:15;;;;;;;24.30;19.70;;;;;;;;;;5032807;28;20029;-73
2023/06/18 08:46:49;;;;;;;24.60;19.15;;;;;;;;;;5031287;28;20057;-73
2023/06/18 08:49:16;;;;;;;25.67;18.30;;;;;;;;;;5032498;28;20460;-73
2023/06/18 08:51:45;;;;;;;24.23;18.00;;;;;;;;;;5032482;28;20068;-73
2023/06/18 08:54:18;;;;;;;24.77;20.02;;;;;;;;;;5032169;28;20117;-73
2023/06/18 08:56:45;;;;;;;22.15;17.35;;;;;;;;;;5032016;28;20030;-73
2023/06/18 08:59:12;;;;;;;22.88;17.27;;;;;;;;;;5032064;28;20033;-73
2023/06/18 09:01:38;;;;;;;24.88;18.65;;;;;;;;;;5032312;28;20108;-73
2023/06/18 09:04:06;;;;;;;24.13;18.63;;;;;;;;;;5032308;28;20033;-73
2023/06/18 09:06:32;;;;;;;22.13;17.17;;;;;;;;;;5032232;28;20018;-73
2023/06/18 09:09:00;;;;;;;21.35;15.68;;;;;;;;;;5032242;28;20036;-73
2023/06/18 09:11:26;;;;;;;22.38;16.98;;;;;;;;;;5032457;28;20029;-73
2023/06/18 09:13:52;;;;;;;22.58;17.40;;;;;;;;;;5031387;28;20053;-74
2023/06/18 09:16:19;;;;;;;20.85;15.65;;;;;;;;;;5031642;28;20048;-73
2023/06/18 09:18:46;;;;;;;22.17;16.90;;;;;;;;;;5032016;28;20029;-73
2023/06/18 09:21:31;;;;;;;22.60;17.98;;;;;;;;;;5032087;28;20040;-73
2023/06/18 09:23:57;;;;;;;19.48;15.73;;;;;;;;;;5032159;28;20041;-73
2023/06/18 09:26:25;;;;;;;18.75;15.60;;;;;;;;;;5031977;28;20113;-74
2023/06/18 09:28:51;;;;;;;20.13;16.10;;;;;;;;;;5032204;28;20452;-73
2023/06/18 09:31:25;;;;;;;24.73;16.55;;;;;;;;;;5031959;28;20014;-73
2023/06/18 09:33:51;;;;;;;17.70;15.80;;;;;;;;;;5032051;28;20021;-72
2023/06/18 09:36:17;;;;;;;19.95;15.13;;;;;;;;;;5031923;28;20029;-73
2023/06/18 09:38:43;;;;;;;15.90;14.10;;;;;;;;;;5031908;28;20022;-73
2023/06/18 09:41:18;;;;;;;20.40;14.27;;;;;;;;;;5032352;28;20438;-73
2023/06/18 09:43:47;;;;;;;18.70;13.80;;;;;;;;;;5035619;28;20026;-73
2023/06/18 09:46:14;;;;;;;17.38;14.35;;;;;;;;;;5034758;28;20049;-73
2023/06/18 09:48:41;;;;;;;18.90;14.02;;;;;;;;;;5035468;28;20053;-73
2023/06/18 09:51:07;;;;;;;17.13;14.10;;;;;;;;;;5035045;28;20022;-73
2023/06/18 09:53:33;;;;;;;19.17;13.40;;;;;;;;;;5035481;28;20029;-73
2023/06/18 09:56:10;;;;;;;16.38;14.55;;;;;;;;;;5035505;28;20117;-73
2023/06/18 09:58:40;;;;;;;16.10;13.55;;;;;;;;;;5035467;28;20029;-73
2023/06/18 10:01:06;;;;;;;13.52;11.63;;;;;;;;;;5035455;28;20037;-73
2023/06/18 10:03:32;;;;;;;15.27;12.85;;;;;;;;;;5035421;28;20029;-73
2023/06/18 10:06:03;;;;;;;15.68;12.27;;;;;;;;;;5035097;28;20048;-73
2023/06/18 10:08:30;;;;;;;15.25;12.95;;;;;;;;;;5035110;28;20029;-74
2023/06/18 10:10:56;;;;;;;14.02;12.00;;;;;;;;;;5035292;28;20107;-73
2023/06/18 10:13:23;;;;;;;13.27;11.68;;;;;;;;;;5035218;28;20465;-73
2023/06/18 10:15:49;;;;;;;13.45;11.95;;;;;;;;;;5035139;28;20079;-73
2023/06/18 10:18:22;;;;;;;13.27;11.38;;;;;;;;;;5035021;28;20108;-73
2023/06/18 10:20:49;;;;;;;14.57;12.35;;;;;;;;;;5035294;28;20105;-73
2023/06/18 10:23:15;;;;;;;13.23;10.70;;;;;;;;;;5031277;28;20034;-73
2023/06/18 10:25:42;;;;;;;14.25;11.43;;;;;;;;;;5028468;28;20029;-73
2023/06/18 10:28:09;;;;;;;13.80;10.93;;;;;;;;;;5026937;28;20022;-73
2023/06/18 10:30:36;;;;;;;14.88;12.88;;;;;;;;;;5015216;28;20022;-73
2023/06/18 10:33:02;;;;;;;13.88;12.30;;;;;;;;;;5014965;28;20030;-73
2023/06/18 10:35:28;;;;;;;13.32;11.57;;;;;;;;;;5030880;28;20079;-73
2023/06/18 10:37:55;;;;;;;13.38;11.98;;;;;;;;;;5034385;28;20041;-73
2023/06/18 10:40:21;;;;;;;14.35;11.65;;;;;;;;;;5034374;28;20498;-73
2023/06/18 10:42:50;;;;;;;13.30;11.63;;;;;;;;;;5034326;28;20543;-73
2023/06/18 10:45:17;;;;;;;13.73;11.95;;;;;;;;;;5032905;28;20033;-73
2023/06/18 10:47:44;;;;;;;13.50;11.50;;;;;;;;;;5027348;28;20045;-73
2023/06/18 10:50:10;;;;;;;13.45;11.15;;;;;;;;;;5031504;28;20093;-73
2023/06/18 10:52:41;;;;;;;12.70;11.30;;;;;;;;;;5033394;28;20025;-73
2023/06/18 10:55:08;;;;;;;14.10;11.90;;;;;;;;;;5034111;28;20029;-73
2023/06/18 10:57:38;;;;;;;15.73;11.40;;;;;;;;;;5029353;28;20034;-73
2023/06/18 11:00:14;;;;;;;13.95;11.65;;;;;;;;;;5028583;28;20106;-73
2023/06/18 11:02:40;;;;;;;14.65;12.68;;;;;;;;;;5034168;28;20025;-74
2023/06/18 11:05:06;;;;;;;11.27;10.07;;;;;;;;;;5034138;28;20641;-73
2023/06/18 11:07:32;;;;;;;12.38;10.18;;;;;;;;;;5033879;28;20033;-73
2023/06/18 11:10:01;;;;;;;11.52;9.65;;;;;;;;;;5033725;28;20068;-73
2023/06/18 11:12:30;;;;;;;11.40;9.80;;;;;;;;;;5034291;28;20021;-73
2023/06/18 11:15:22;;;;;;;12.40;9.65;;;;;;;;;;5033822;28;20108;-73
2023/06/18 11:17:53;;;;;;;11.38;9.52;;;;;;;;;;5028039;28;20109;-73
2023/06/18 11:20:20;;;;;;;10.10;9.00;;;;;;;;;;5031626;28;20022;-73
2023/06/18 11:22:47;;;;;;;10.20;9.20;;;;;;;;;;5033452;28;20029;-73
2023/06/18 11:25:14;;;;;;;11.35;9.27;;;;;;;;;;5033374;28;20136;-73
2023/06/18 11:27:44;;;;;;;10.75;8.52;;;;;;;;;;5024112;28;20026;-73
2023/06/18 11:30:11;;;;;;;9.68;8.75;;;;;;;;;;5029140;28;20021;-73
2023/06/18 11:32:38;;;;;;;11.82;9.25;;;;;;;;;;5032015;28;20033;-73
2023/06/18 11:35:05;;;;;;;10.20;9.20;;;;;;;;;;5032039;28;20021;-73
2023/06/18 11:37:31;;;;;;;9.40;8.50;;;;;;;;;;5033104;28;20065;-73
2023/06/18 11:40:05;;;;;;;9.95;8.95;;;;;;;;;;5033160;28;20053;-73
2023/06/18 11:42:33;;;;;;;10.02;9.10;;;;;;;;;;5022050;28;20021;-73
2023/06/18 11:45:01;;;;;;;9.50;8.48;;;;;;;;;;5033324;28;20101;-73
2023/06/18 11:47:29;;;;;;;9.77;8.85;;;;;;;;;;5021368;28;20172;-73
2023/06/18 11:49:55;;;;;;;8.70;7.90;;;;;;;;;;5033164;28;20044;-73
2023/06/18 11:52:21;;;;;;;10.00;8.38;;;;;;;;;;5033186;28;20551;-73
2023/06/18 11:54:48;;;;;;;9.02;8.10;;;;;;;;;;5032996;28;20017;-73
2023/06/18 11:57:17;;;;;;;9.98;8.10;;;;;;;;;;5032981;28;20021;-73
2023/06/18 11:59:45;;;;;;;8.13;7.43;;;;;;;;;;5031630;28;20036;-73
2023/06/18 12:02:15;;;;;;;10.30;7.90;;;;;;;;;;5032961;28;20029;-73
2023/06/18 12:04:42;;;;;;;8.38;7.50;;;;;;;;;;5032258;28;20461;-72
2023/06/18 12:07:08;;;;;;;10.02;7.43;;;;;;;;;;5032795;28;20026;-73
2023/06/18 12:09:36;;;;;;;9.25;7.43;;;;;;;;;;5032822;28;20087;-73
2023/06/18 12:12:14;;;;;;;9.02;8.13;;;;;;;;;;5032516;28;20137;-73
2023/06/18 12:14:44;;;;;;;8.30;7.57;;;;;;;;;;5024521;28;20523;-73
2023/06/18 12:17:16;;;;;;;8.10;7.32;;;;;;;;;;5028537;28;20115;-73
2023/06/18 12:19:44;;;;;;;8.75;7.85;;;;;;;;;;5032713;28;20033;-73
2023/06/18 12:22:13;;;;;;;10.33;8.30;;;;;;;;;;5026346;28;20418;-73
2023/06/18 12:24:39;;;;;;;9.27;8.18;;;;;;;;;;5025806;28;20025;-73
2023/06/18 12:27:05;;;;;;;9.65;8.80;;;;;;;;;;5029862;28;20079;-72
2023/06/18 12:29:31;;;;;;;10.27;8.75;;;;;;;;;;5022441;28;20040;-73
2023/06/18 12:32:04;;;;;;;9.48;8.52;;;;;;;;;;5017816;28;20021;-73
2023/06/18 12:34:33;;;;;;;9.45;8.55;;;;;;;;;;5032475;28;20030;-72
2023/06/18 12:36:59;;;;;;;9.23;8.27;;;;;;;;;;5027462;28;20469;-72
2023/06/18 12:39:25;;;;;;;9.55;7.90;;;;;;;;;;5024223;28;20100;-72
2023/06/18 12:41:51;;;;;;;10.00;9.02;;;;;;;;;;5027241;28;20026;-72
2023/06/18 12:44:21;;;;;;;9.77;8.60;;;;;;;;;;5029511;28;20040;-73
2023/06/18 12:46:49;;;;;;;10.00;8.20;;;;;;;;;;5028745;28;20046;-73
2023/06/18 12:49:15;;;;;;;9.93;8.93;;;;;;;;;;5029021;28;20021;-73
2023/06/18 12:51:42;;;;;;;10.77;9.77;;;;;;;;;;5031653;28;20036;-72
2023/06/18 12:54:18;;;;;;;9.40;8.43;;;;;;;;;;5025280;28;20407;-73
2023/06/18 12:56:48;;;;;;;10.43;8.73;;;;;;;;;;5031291;28;20397;-71
2023/06/18 12:59:17;;;;;;;10.60;9.07;;;;;;;;;;5017846;28;20563;-72
2023/06/18 13:01:44;;;;;;;11.10;10.07;;;;;;;;;;5014828;28;20045;-72
2023/06/18 13:04:11;;;;;;;11.32;9.55;;;;;;;;;;5027220;28;20040;-72
2023/06/18 13:06:37;;;;;;;12.25;10.70;;;;;;;;;;5047146;28;20024;-73
2023/06/18 13:09:04;;;;;;;10.95;9.50;;;;;;;;;;5031943;28;20354;-72
2023/06/18 13:11:31;;;;;;;12.60;9.23;;;;;;;;;;5032077;28;20022;-73
2023/06/18 13:13:57;;;;;;;10.73;9.55;;;;;;;;;;5031490;28;20465;-73
2023/06/18 13:16:23;;;;;;;11.48;10.35;;;;;;;;;;5030374;28;20053;-73
2023/06/18 13:18:49;;;;;;;10.32;9.07;;;;;;;;;;5035902;28;20026;-73
2023/06/18 13:21:15;;;;;;;10.43;9.23;;;;;;;;;;5029942;28;20088;-73
2023/06/18 13:23:41;;;;;;;9.95;9.05;;;;;;;;;;5035973;28;20025;-73
2023/06/18 13:26:08;;;;;;;7.43;6.68;;;;;;;;;;5035602;28;20033;-73
2023/06/18 13:28:34;;;;;;;7.03;6.28;;;;;;;;;;5035631;28;20018;-73
2023/06/18 13:31:00;;;;;;;8.20;7.28;;;;;;;;;;5035262;28;20464;-73
2023/06/18 13:33:26;;;;;;;7.65;6.95;;;;;;;;;;5031142;28;20026;-73
2023/06/18 13:35:52;;;;;;;7.93;7.13;;;;;;;;;;5029232;28;20517;-73
2023/06/18 13:38:18;;;;;;;8.30;6.63;;;;;;;;;;5031444;28;20052;-73
2023/06/18 13:40:44;;;;;;;8.10;7.40;;;;;;;;;;5034758;28;20040;-73
2023/06/18 13:43:13;;;;;;;8.40;7.60;;;;;;;;;;5032503;28;20030;-73
2023/06/18 13:45:39;;;;;;;8.63;7.82;;;;;;;;;;5033685;28;20061;-73
2023/06/18 13:48:06;;;;;;;7.85;7.15;;;;;;;;;;5030207;28;20036;-73
2023/06/18 13:50:33;;;;;;;7.75;6.88;;;;;;;;;;5035177;28;20101;-73
2023/06/18 13:52:59;;;;;;;8.43;7.45;;;;;;;;;;5035193;28;20023;-73
2023/06/18 13:55:25;;;;;;;7.55;6.40;;;;;;;;;;5027479;28;20033;-73
2023/06/18 13:57:51;;;;;;;9.30;6.68;;;;;;;;;;5020777;28;20039;-73
2023/06/18 14:00:18;;;;;;;8.10;7.22;;;;;;;;;;5025686;28;20037;-73
2023/06/18 14:02:45;;;;;;;9.20;7.25;;;;;;;;;;5033328;28;20048;-72
2023/06/18 14:05:11;;;;;;;8.13;7.20;;;;;;;;;;5035282;28;20096;-73
2023/06/18 14:07:37;;;;;;;8.82;7.93;;;;;;;;;;5034914;28;20453;-73
2023/06/18 14:10:04;;;;;;;8.27;7.22;;;;;;;;;;5024451;28;20013;-73
2023/06/18 14:12:30;;;;;;;7.97;7.13;;;;;;;;;;5032319;28;20472;-73
2023/06/18 14:14:56;;;;;;;8.23;7.53;;;;;;;;;;5028613;28;20083;-73
2023/06/18 14:17:23;;;;;;;8.40;7.60;;;;;;;;;;5018888;28;20064;-73
2023/06/18 14:19:49;;;;;;;9.63;7.47;;;;;;;;;;5034798;28;20013;-73
2023/06/18 14:22:15;;;;;;;9.07;7.90;;;;;;;;;;5034927;28;20021;-72